Time;durP1;ratioP1;P1;durP2;ratioP2;P2;SDS_P1;SDS_P2;PMS_P1;PMS_P2;Temp;Humidity;BMP_temperature;BMP_pressure;BME280_temperature;BME280_humidity;BME280_pressure;Samples;Min_cycle;Max_cycle;Signal;HPM_P1;HPM_P2
2023/05/01 00:01:15;;;;;;;1.48;1.38;;;;;;;;;;5019192;28;20052;-76
2023/05/01 00:03:40;;;;;;;3.97;2.05;;;;;;;;;;5053808;28;20123;-76
2023/05/01 00:06:06;;;;;;;2.50;1.40;;;;;;;;;;5035849;28;20482;-77
2023/05/01 00:08:32;;;;;;;2.30;1.63;;;;;;;;;;5019157;28;20047;-76
2023/05/01 00:11:04;;;;;;;1.67;1.38;;;;;;;;;;5053410;28;20029;-77
2023/05/01 00:13:30;;;;;;;2.53;1.05;;;;;;;;;;5030164;28;20116;-78
2023/05/01 00:15:56;;;;;;;1.55;1.30;;;;;;;;;;5035306;28;20032;-78
2023/05/01 00:18:21;;;;;;;2.00;1.58;;;;;;;;;;5019588;28;20443;-79
2023/05/01 00:20:47;;;;;;;3.42;1.27;;;;;;;;;;5032199;28;20458;-79
2023/05/01 00:23:12;;;;;;;3.65;1.80;;;;;;;;;;5033771;28;20033;-78
2023/05/01 00:25:38;;;;;;;4.03;1.48;;;;;;;;;;5053217;28;20032;-78
2023/05/01 00:28:05;;;;;;;2.45;2.00;;;;;;;;;;5035396;28;20194;-78
2023/05/01 00:30:32;;;;;;;3.65;2.28;;;;;;;;;;5031876;28;20033;-78
2023/05/01 00:32:58;;;;;;;3.72;1.58;;;;;;;;;;5032071;28;20036;-77
2023/05/01 00:35:23;;;;;;;3.42;2.05;;;;;;;;;;5035526;28;20130;-77
2023/05/01 00:37:49;;;;;;;4.15;1.73;;;;;;;;;;5052925;28;20063;-78
2023/05/01 00:40:15;;;;;;;1.70;1.50;;;;;;;;;;5017950;28;20095;-77
2023/05/01 00:42:40;;;;;;;4.75;2.13;;;;;;;;;;5053119;28;20024;-77
2023/05/01 00:45:06;;;;;;;2.10;1.55;;;;;;;;;;5032490;28;20063;-77
2023/05/01 00:47:34;;;;;;;4.43;2.70;;;;;;;;;;5032131;28;20033;-77
2023/05/01 00:49:59;;;;;;;1.60;1.40;;;;;;;;;;5032240;28;20036;-77
2023/05/01 00:52:25;;;;;;;3.40;2.03;;;;;;;;;;5018662;28;20032;-77
2023/05/01 00:54:51;;;;;;;3.63;2.20;;;;;;;;;;5015632;28;20025;-77
2023/05/01 00:57:20;;;;;;;2.80;1.85;;;;;;;;;;5004980;28;20125;-78
2023/05/01 00:59:45;;;;;;;4.43;3.17;;;;;;;;;;5035558;28;20072;-77
2023/05/01 01:02:14;;;;;;;1.92;1.33;;;;;;;;;;5020801;28;20060;-77
2023/05/01 01:04:45;;;;;;;4.63;2.20;;;;;;;;;;5035481;28;20473;-79
2023/05/01 01:07:57;;;;;;;2.65;1.42;;;;;;;;;;5036846;28;20029;-78
2023/05/01 01:10:51;;;;;;;1.48;1.27;;;;;;;;;;5024066;28;20115;-78
2023/05/01 01:13:19;;;;;;;2.55;1.98;;;;;;;;;;5056263;28;20029;-77
2023/05/01 01:16:02;;;;;;;3.55;1.52;;;;;;;;;;5032215;28;20029;-79
2023/05/01 01:18:41;;;;;;;2.35;1.95;;;;;;;;;;5047773;28;20033;-77
2023/05/01 01:21:23;;;;;;;2.47;1.90;;;;;;;;;;5022624;28;20025;-77
2023/05/01 01:24:07;;;;;;;3.80;1.67;;;;;;;;;;5040569;28;20087;-78
2023/05/01 01:26:57;;;;;;;3.38;2.95;;;;;;;;;;5038419;28;20025;-78
2023/05/01 01:29:44;;;;;;;4.60;2.03;;;;;;;;;;5039035;28;20036;-78
2023/05/01 01:32:16;;;;;;;1.98;1.23;;;;;;;;;;5038415;28;20039;-78
2023/05/01 01:34:53;;;;;;;3.53;1.98;;;;;;;;;;5038116;28;20041;-78
2023/05/01 01:37:24;;;;;;;2.72;1.92;;;;;;;;;;5005424;28;20025;-78
2023/05/01 01:40:04;;;;;;;3.75;2.38;;;;;;;;;;5021891;28;20123;-78
2023/05/01 01:42:43;;;;;;;3.63;2.17;;;;;;;;;;5021463;28;20147;-78
2023/05/01 01:45:15;;;;;;;6.07;2.60;;;;;;;;;;5023517;28;20055;-78
2023/05/01 01:47:41;;;;;;;2.70;1.73;;;;;;;;;;5055656;28;20291;-77
2023/05/01 01:50:07;;;;;;;4.20;2.30;;;;;;;;;;5005441;28;20242;-78
2023/05/01 01:52:33;;;;;;;4.85;1.45;;;;;;;;;;5021569;28;20033;-78
2023/05/01 01:55:04;;;;;;;2.60;1.45;;;;;;;;;;5021505;28;20190;-78
2023/05/01 01:57:30;;;;;;;4.28;2.22;;;;;;;;;;5021969;28;20047;-78
2023/05/01 01:59:56;;;;;;;2.67;1.25;;;;;;;;;;5021597;28;20467;-77
2023/05/01 02:02:21;;;;;;;11.85;3.60;;;;;;;;;;5037707;28;20123;-77
2023/05/01 02:04:47;;;;;;;2.30;1.67;;;;;;;;;;5055405;28;20407;-77
2023/05/01 02:07:13;;;;;;;3.20;1.75;;;;;;;;;;5020756;28;20025;-77
2023/05/01 02:09:38;;;;;;;3.90;1.35;;;;;;;;;;5021313;28;20524;-77
2023/05/01 02:12:05;;;;;;;5.25;3.22;;;;;;;;;;5020693;28;20041;-77
2023/05/01 02:14:30;;;;;;;5.00;2.28;;;;;;;;;;5021129;28;20029;-77
2023/05/01 02:16:57;;;;;;;2.22;1.55;;;;;;;;;;5029638;28;20049;-77
2023/05/01 02:19:23;;;;;;;2.78;1.63;;;;;;;;;;5020724;28;20387;-76
2023/05/01 02:21:48;;;;;;;3.45;1.63;;;;;;;;;;5020965;28;20078;-76
2023/05/01 02:24:14;;;;;;;2.22;1.60;;;;;;;;;;5020704;28;20451;-77
2023/05/01 02:26:44;;;;;;;4.90;2.33;;;;;;;;;;5004412;28;20450;-77
2023/05/01 02:29:10;;;;;;;2.10;1.77;;;;;;;;;;5021208;28;20342;-78
2023/05/01 02:31:35;;;;;;;1.67;1.52;;;;;;;;;;5004151;28;20052;-77
2023/05/01 02:34:00;;;;;;;2.95;1.92;;;;;;;;;;5037067;28;20107;-79
2023/05/01 02:36:26;;;;;;;5.45;2.05;;;;;;;;;;5054789;28;20061;-76
2023/05/01 02:38:52;;;;;;;5.72;1.90;;;;;;;;;;5054752;28;20029;-76
2023/05/01 02:41:18;;;;;;;4.15;1.80;;;;;;;;;;5020299;28;20112;-78
2023/05/01 02:43:44;;;;;;;4.75;2.53;;;;;;;;;;5020939;28;20370;-77
2023/05/01 02:46:10;;;;;;;6.05;2.28;;;;;;;;;;5003953;28;20025;-77
2023/05/01 02:48:37;;;;;;;3.65;1.35;;;;;;;;;;5004385;28;20037;-77
2023/05/01 02:51:02;;;;;;;2.88;1.15;;;;;;;;;;5020830;28;20032;-78
2023/05/01 02:53:28;;;;;;;3.78;2.22;;;;;;;;;;5020251;28;20335;-78
2023/05/01 02:55:53;;;;;;;4.57;2.78;;;;;;;;;;5036411;28;20032;-79
2023/05/01 02:58:19;;;;;;;5.03;2.00;;;;;;;;;;5036184;28;20052;-79
2023/05/01 03:00:46;;;;;;;3.42;1.92;;;;;;;;;;5036628;28;20036;-77
2023/05/01 03:03:11;;;;;;;2.40;1.38;;;;;;;;;;5020550;28;20079;-78
2023/05/01 03:05:38;;;;;;;2.83;1.70;;;;;;;;;;5020265;28;20033;-78
2023/05/01 03:08:04;;;;;;;2.97;1.40;;;;;;;;;;5037036;28;20035;-78
2023/05/01 03:10:30;;;;;;;5.82;1.40;;;;;;;;;;5036625;28;20362;-76
2023/05/01 03:12:55;;;;;;;4.90;2.08;;;;;;;;;;5036409;28;20029;-78
2023/05/01 03:15:21;;;;;;;2.65;1.75;;;;;;;;;;5020079;28;20029;-77
2023/05/01 03:17:46;;;;;;;4.20;1.27;;;;;;;;;;5049349;28;20123;-77
2023/05/01 03:20:11;;;;;;;2.45;1.58;;;;;;;;;;5035716;28;20032;-78
2023/05/01 03:22:37;;;;;;;1.80;1.33;;;;;;;;;;5053905;28;20025;-77
2023/05/01 03:25:03;;;;;;;5.28;2.33;;;;;;;;;;5035853;28;20456;-78
2023/05/01 03:27:29;;;;;;;3.35;1.98;;;;;;;;;;5019596;28;20032;-79
2023/05/01 03:29:55;;;;;;;3.25;2.22;;;;;;;;;;5036084;28;20052;-78
2023/05/01 03:32:21;;;;;;;3.53;1.85;;;;;;;;;;5019592;28;20033;-76
2023/05/01 03:34:46;;;;;;;3.28;1.70;;;;;;;;;;5053819;28;20028;-78
2023/05/01 03:37:12;;;;;;;2.33;1.90;;;;;;;;;;5036001;28;20025;-77
2023/05/01 03:39:37;;;;;;;10.27;1.50;;;;;;;;;;5035487;28;20155;-77
2023/05/01 03:42:04;;;;;;;3.58;1.92;;;;;;;;;;5035902;28;20094;-77
2023/05/01 03:44:29;;;;;;;3.72;3.40;;;;;;;;;;5019725;28;20090;-79
2023/05/01 03:46:54;;;;;;;4.18;1.20;;;;;;;;;;5018840;28;20049;-78
2023/05/01 03:49:20;;;;;;;2.83;1.67;;;;;;;;;;5003220;28;20127;-78
2023/05/01 03:51:46;;;;;;;3.05;1.88;;;;;;;;;;5035797;28;20021;-78
2023/05/01 03:54:11;;;;;;;3.30;1.38;;;;;;;;;;5053366;28;20021;-78
2023/05/01 03:56:37;;;;;;;3.75;1.40;;;;;;;;;;5053697;28;20021;-79
2023/05/01 03:59:03;;;;;;;5.00;2.40;;;;;;;;;;5036077;28;20072;-78
2023/05/01 04:01:28;;;;;;;2.58;1.58;;;;;;;;;;5019452;28;20032;-77
2023/05/01 04:03:54;;;;;;;2.72;2.13;;;;;;;;;;5035924;28;20025;-78
2023/05/01 04:06:19;;;;;;;8.00;4.10;;;;;;;;;;5019314;28;20106;-78
2023/05/01 04:08:45;;;;;;;3.65;2.08;;;;;;;;;;5035428;28;20024;-78
2023/05/01 04:11:10;;;;;;;2.70;2.10;;;;;;;;;;5035699;28;20017;-78
2023/05/01 04:13:35;;;;;;;7.07;3.55;;;;;;;;;;5019358;28;20025;-78
2023/05/01 04:16:01;;;;;;;2.88;2.10;;;;;;;;;;5019382;28;20496;-78
2023/05/01 04:18:26;;;;;;;6.82;2.75;;;;;;;;;;5035499;28;20041;-78
2023/05/01 04:20:52;;;;;;;3.42;1.45;;;;;;;;;;5002853;28;20029;-78
2023/05/01 04:23:19;;;;;;;11.95;4.45;;;;;;;;;;5025825;28;20040;-79
2023/05/01 04:25:45;;;;;;;3.20;1.83;;;;;;;;;;5035481;28;20358;-79
2023/05/01 04:28:11;;;;;;;3.88;2.35;;;;;;;;;;5035792;28;20123;-78
2023/05/01 04:30:36;;;;;;;5.22;2.40;;;;;;;;;;5038183;28;20112;-78
2023/05/01 04:33:05;;;;;;;7.28;3.35;;;;;;;;;;5022963;28;20028;-79
2023/05/01 04:35:30;;;;;;;9.13;2.40;;;;;;;;;;5057200;28;20053;-79
2023/05/01 04:37:55;;;;;;;3.47;2.55;;;;;;;;;;5022499;28;20083;-78
2023/05/01 04:40:21;;;;;;;4.18;2.17;;;;;;;;;;5039349;28;20037;-78
2023/05/01 04:42:46;;;;;;;8.52;3.28;;;;;;;;;;5006407;28;20032;-78
2023/05/01 04:45:12;;;;;;;4.25;2.38;;;;;;;;;;5039224;28;20076;-78
2023/05/01 04:47:37;;;;;;;7.38;3.38;;;;;;;;;;5038943;28;20132;-78
2023/05/01 04:50:03;;;;;;;6.30;2.47;;;;;;;;;;5022773;28;20068;-78
2023/05/01 04:52:28;;;;;;;6.10;3.38;;;;;;;;;;5022335;28;20051;-78
2023/05/01 04:54:54;;;;;;;4.93;2.67;;;;;;;;;;5039056;28;20519;-78
2023/05/01 04:57:19;;;;;;;5.10;3.30;;;;;;;;;;5056913;28;20032;-78
2023/05/01 04:59:45;;;;;;;11.38;3.47;;;;;;;;;;5038948;28;20356;-78
2023/05/01 05:02:10;;;;;;;6.60;3.20;;;;;;;;;;5023007;28;20051;-78
2023/05/01 05:04:36;;;;;;;6.30;3.55;;;;;;;;;;5022474;28;20467;-78
2023/05/01 05:07:02;;;;;;;5.32;3.10;;;;;;;;;;5056410;28;20028;-78
2023/05/01 05:09:27;;;;;;;10.80;2.53;;;;;;;;;;5006271;28;20089;-78
2023/05/01 05:11:52;;;;;;;7.85;2.97;;;;;;;;;;5023151;28;20025;-79
2023/05/01 05:14:18;;;;;;;4.55;2.75;;;;;;;;;;5056861;28;20025;-78
2023/05/01 05:16:43;;;;;;;9.73;4.65;;;;;;;;;;5056980;28;20048;-79
2023/05/01 05:19:09;;;;;;;4.80;3.20;;;;;;;;;;5022829;28;20029;-79
2023/05/01 05:21:34;;;;;;;8.25;3.70;;;;;;;;;;5056270;28;20029;-78
2023/05/01 05:23:59;;;;;;;7.85;3.95;;;;;;;;;;5006246;28;20025;-78
2023/05/01 05:26:25;;;;;;;6.30;3.67;;;;;;;;;;5017684;28;20033;-80
2023/05/01 05:28:51;;;;;;;8.60;4.47;;;;;;;;;;5021821;28;20047;-79
2023/05/01 05:31:16;;;;;;;5.57;3.40;;;;;;;;;;5056053;28;20045;-79
2023/05/01 05:33:42;;;;;;;12.40;4.63;;;;;;;;;;5021941;28;20509;-79
2023/05/01 05:36:08;;;;;;;9.85;5.10;;;;;;;;;;5037905;28;20025;-79
2023/05/01 05:38:33;;;;;;;7.95;5.13;;;;;;;;;;5056088;28;20040;-78
2023/05/01 05:40:59;;;;;;;9.40;4.72;;;;;;;;;;5037326;28;20025;-79
2023/05/01 05:43:25;;;;;;;8.98;4.80;;;;;;;;;;5038022;28;20382;-78
2023/05/01 05:45:50;;;;;;;12.18;4.60;;;;;;;;;;5038220;28;20029;-79
2023/05/01 05:48:16;;;;;;;9.88;4.40;;;;;;;;;;5055506;28;20045;-79
2023/05/01 05:50:41;;;;;;;6.93;4.20;;;;;;;;;;5055441;28;20024;-79
2023/05/01 05:53:08;;;;;;;8.55;4.60;;;;;;;;;;5038112;28;20523;-79
2023/05/01 05:55:34;;;;;;;10.02;4.30;;;;;;;;;;5038100;28;20025;-79
2023/05/01 05:57:59;;;;;;;7.22;4.35;;;;;;;;;;5037986;28;20454;-79
2023/05/01 06:00:25;;;;;;;7.00;4.15;;;;;;;;;;5005156;28;20336;-79
2023/05/01 06:02:51;;;;;;;6.80;4.43;;;;;;;;;;5037411;28;20094;-79
2023/05/01 06:05:16;;;;;;;6.97;3.90;;;;;;;;;;5021075;28;20127;-79
2023/05/01 06:07:42;;;;;;;7.78;3.67;;;;;;;;;;5037773;28;20061;-78
2023/05/01 06:10:08;;;;;;;7.90;4.15;;;;;;;;;;5055412;28;20386;-77
2023/05/01 06:12:33;;;;;;;7.05;3.90;;;;;;;;;;5037609;28;20029;-77
2023/05/01 06:14:59;;;;;;;5.03;3.50;;;;;;;;;;5021072;28;20025;-78
2023/05/01 06:17:24;;;;;;;6.45;4.22;;;;;;;;;;5037621;28;20142;-77
2023/05/01 06:19:52;;;;;;;5.90;4.07;;;;;;;;;;5037069;28;20029;-78
2023/05/01 06:22:18;;;;;;;5.38;3.72;;;;;;;;;;5037876;28;20766;-80
2023/05/01 06:24:44;;;;;;;7.72;4.05;;;;;;;;;;5020802;28;20098;-78
2023/05/01 06:27:10;;;;;;;7.20;4.43;;;;;;;;;;4995693;28;20406;-78
2023/05/01 06:29:35;;;;;;;7.93;4.20;;;;;;;;;;5017600;28;20033;-79
2023/05/01 06:32:01;;;;;;;7.68;4.45;;;;;;;;;;5037130;28;20021;-78
2023/05/01 06:34:26;;;;;;;8.05;3.92;;;;;;;;;;5020866;28;20033;-78
2023/05/01 06:36:52;;;;;;;6.55;3.95;;;;;;;;;;5054920;28;20025;-78
2023/05/01 06:39:17;;;;;;;7.60;4.25;;;;;;;;;;5020304;28;20037;-79
2023/05/01 06:41:46;;;;;;;7.50;4.47;;;;;;;;;;5037093;28;20020;-78
2023/05/01 06:44:11;;;;;;;8.23;4.83;;;;;;;;;;5054491;28;20021;-79
2023/05/01 06:46:37;;;;;;;6.25;3.65;;;;;;;;;;5020398;28;20037;-78
2023/05/01 06:49:02;;;;;;;7.22;4.60;;;;;;;;;;5054499;28;20441;-79
2023/05/01 06:51:29;;;;;;;5.45;4.20;;;;;;;;;;5020471;28;20032;-78
2023/05/01 06:53:54;;;;;;;5.68;3.85;;;;;;;;;;5020304;28;20040;-78
2023/05/01 06:56:20;;;;;;;5.65;3.53;;;;;;;;;;5047801;28;20047;-79
2023/05/01 06:58:46;;;;;;;6.95;4.22;;;;;;;;;;5036623;28;20429;-79
2023/05/01 07:01:11;;;;;;;5.63;3.85;;;;;;;;;;5036376;28;20029;-79
2023/05/01 07:03:37;;;;;;;5.90;3.90;;;;;;;;;;5054228;28;20089;-79
2023/05/01 07:06:02;;;;;;;4.40;3.50;;;;;;;;;;5036637;28;20024;-79
2023/05/01 07:08:28;;;;;;;5.55;3.55;;;;;;;;;;5019867;28;20428;-79
2023/05/01 07:10:53;;;;;;;4.57;3.42;;;;;;;;;;5054229;28;20025;-79
2023/05/01 07:13:19;;;;;;;3.83;3.20;;;;;;;;;;5036510;28;20036;-79
2023/05/01 07:15:44;;;;;;;4.60;3.08;;;;;;;;;;5019652;28;20454;-80
2023/05/01 07:18:11;;;;;;;4.45;3.08;;;;;;;;;;5036065;28;20036;-79
2023/05/01 07:20:36;;;;;;;6.40;3.85;;;;;;;;;;5019839;28;20021;-79
2023/05/01 07:23:02;;;;;;;5.15;3.20;;;;;;;;;;5019748;28;20021;-79
2023/05/01 07:25:28;;;;;;;4.72;3.40;;;;;;;;;;5003503;28;20028;-79
2023/05/01 07:27:54;;;;;;;4.60;3.22;;;;;;;;;;5019859;28;20036;-79
2023/05/01 07:30:19;;;;;;;5.53;4.05;;;;;;;;;;5025749;28;20312;-79
2023/05/01 07:32:45;;;;;;;5.72;4.03;;;;;;;;;;5002109;28;20025;-78
2023/05/01 07:35:10;;;;;;;5.35;3.80;;;;;;;;;;5019588;28;20103;-77
2023/05/01 07:37:36;;;;;;;6.40;3.83;;;;;;;;;;5036089;28;20115;-78
2023/05/01 07:40:02;;;;;;;5.22;3.65;;;;;;;;;;5035808;28;20432;-77
2023/05/01 07:42:27;;;;;;;6.20;3.85;;;;;;;;;;5002810;28;20391;-78
2023/05/01 07:44:53;;;;;;;5.68;3.80;;;;;;;;;;5019425;28;20096;-78
2023/05/01 07:47:18;;;;;;;7.45;3.78;;;;;;;;;;5035816;28;20067;-79
2023/05/01 07:49:44;;;;;;;5.97;3.55;;;;;;;;;;5003163;28;20091;-76
2023/05/01 07:52:09;;;;;;;5.78;3.50;;;;;;;;;;5019413;28;20025;-77
2023/05/01 07:54:35;;;;;;;6.93;4.30;;;;;;;;;;5019385;28;20013;-77
2023/05/01 07:57:00;;;;;;;6.35;3.80;;;;;;;;;;5035739;28;20105;-78
2023/05/01 07:59:27;;;;;;;5.20;3.67;;;;;;;;;;5053444;28;20356;-78
2023/05/01 08:01:52;;;;;;;6.05;3.70;;;;;;;;;;5019300;28;20075;-78
2023/05/01 08:04:17;;;;;;;6.82;3.78;;;;;;;;;;5020714;28;20496;-78
2023/05/01 08:06:43;;;;;;;4.47;3.53;;;;;;;;;;5042337;28;20024;-79
2023/05/01 08:09:08;;;;;;;7.50;4.30;;;;;;;;;;5060016;28;20453;-78
2023/05/01 08:11:34;;;;;;;4.05;3.42;;;;;;;;;;5060207;28;20070;-78
2023/05/01 08:13:59;;;;;;;4.78;3.80;;;;;;;;;;5042005;28;20025;-77
2023/05/01 08:16:25;;;;;;;6.30;3.85;;;;;;;;;;5042070;28;20039;-77
2023/05/01 08:18:51;;;;;;;4.30;3.13;;;;;;;;;;5025662;28;20025;-78
2023/05/01 08:21:16;;;;;;;12.80;4.15;;;;;;;;;;5025605;28;20478;-78
2023/05/01 08:23:41;;;;;;;4.50;3.33;;;;;;;;;;5060095;28;20417;-77
2023/05/01 08:26:07;;;;;;;7.55;3.70;;;;;;;;;;5025591;28;20369;-78
2023/05/01 08:28:36;;;;;;;4.97;3.65;;;;;;;;;;5009154;28;20358;-79
2023/05/01 08:31:02;;;;;;;8.48;3.60;;;;;;;;;;5056280;28;20078;-80
2023/05/01 08:33:28;;;;;;;4.95;3.30;;;;;;;;;;5059528;28;20017;-76
2023/05/01 08:35:53;;;;;;;6.43;3.30;;;;;;;;;;5025488;28;20032;-78
2023/05/01 08:38:18;;;;;;;4.50;3.35;;;;;;;;;;5059753;28;20481;-77
2023/05/01 08:40:48;;;;;;;5.22;3.63;;;;;;;;;;5041941;28;20025;-76
2023/05/01 08:43:13;;;;;;;3.65;2.88;;;;;;;;;;5041645;28;20123;-79
2023/05/01 08:45:39;;;;;;;5.93;3.05;;;;;;;;;;5025782;28;20108;-79
2023/05/01 08:48:05;;;;;;;10.43;3.03;;;;;;;;;;5022126;28;20060;-79
2023/05/01 08:50:32;;;;;;;8.80;4.72;;;;;;;;;;5042234;28;20051;-79
2023/05/01 08:52:58;;;;;;;8.20;4.70;;;;;;;;;;5025641;28;20181;-78
2023/05/01 08:55:23;;;;;;;5.90;3.95;;;;;;;;;;5042040;28;20025;-80
2023/05/01 08:57:49;;;;;;;6.32;4.45;;;;;;;;;;5041098;28;20048;-79
2023/05/01 09:00:18;;;;;;;5.53;3.97;;;;;;;;;;5041820;28;20052;-79
2023/05/01 09:02:45;;;;;;;7.15;4.65;;;;;;;;;;5059818;28;20017;-79
2023/05/01 09:05:11;;;;;;;6.60;4.68;;;;;;;;;;5025481;28;20087;-79
2023/05/01 09:07:36;;;;;;;6.25;4.13;;;;;;;;;;5009707;28;20025;-78
2023/05/01 09:10:02;;;;;;;18.85;4.40;;;;;;;;;;5040730;28;20040;-78
2023/05/01 09:12:27;;;;;;;9.23;4.72;;;;;;;;;;5025218;28;20033;-78
2023/05/01 09:14:56;;;;;;;9.55;4.38;;;;;;;;;;5041900;28;20363;-79
2023/05/01 09:17:22;;;;;;;8.30;5.18;;;;;;;;;;5038004;28;20033;-79
2023/05/01 09:19:47;;;;;;;14.70;5.50;;;;;;;;;;5022228;28;20040;-79
2023/05/01 09:22:13;;;;;;;8.63;5.05;;;;;;;;;;5005773;28;20454;-78
2023/05/01 09:24:38;;;;;;;7.95;4.78;;;;;;;;;;5022018;28;20087;-79
2023/05/01 09:27:04;;;;;;;7.68;5.10;;;;;;;;;;5022035;28;20025;-79
2023/05/01 09:29:46;;;;;;;7.30;4.90;;;;;;;;;;5005631;28;20033;-79
2023/05/01 09:32:12;;;;;;;9.23;5.20;;;;;;;;;;5022280;28;20083;-78
2023/05/01 09:34:37;;;;;;;11.73;5.60;;;;;;;;;;5027669;28;20112;-79
2023/05/01 09:37:03;;;;;;;6.55;4.68;;;;;;;;;;5005333;28;20065;-79
2023/05/01 09:39:28;;;;;;;6.55;4.68;;;;;;;;;;5056006;28;20037;-78
2023/05/01 09:41:54;;;;;;;5.55;4.45;;;;;;;;;;5037891;28;20032;-79
2023/05/01 09:44:19;;;;;;;9.68;4.47;;;;;;;;;;5021466;28;20040;-78
2023/05/01 09:46:45;;;;;;;6.43;4.30;;;;;;;;;;5021453;28;20114;-78
2023/05/01 09:49:10;;;;;;;10.38;4.70;;;;;;;;;;5004949;28;20069;-78
2023/05/01 09:51:36;;;;;;;7.03;4.50;;;;;;;;;;5021711;28;20029;-78
2023/05/01 09:54:03;;;;;;;7.05;4.63;;;;;;;;;;5021698;28;20051;-78
2023/05/01 09:56:32;;;;;;;9.75;4.65;;;;;;;;;;5021262;28;20034;-78
2023/05/01 09:59:13;;;;;;;5.00;3.78;;;;;;;;;;5005649;28;20597;-78
2023/05/01 10:01:43;;;;;;;8.05;4.63;;;;;;;;;;5037742;28;20127;-78
2023/05/01 10:04:09;;;;;;;6.13;3.58;;;;;;;;;;5021643;28;20021;-78
2023/05/01 10:06:35;;;;;;;13.15;4.40;;;;;;;;;;5021148;28;20048;-76
2023/05/01 10:09:00;;;;;;;6.20;3.75;;;;;;;;;;5020992;28;20377;-78
2023/05/01 10:11:26;;;;;;;7.05;3.80;;;;;;;;;;5037448;28;20033;-78
2023/05/01 10:14:08;;;;;;;5.30;3.67;;;;;;;;;;5037968;28;20029;-78
2023/05/01 10:16:35;;;;;;;5.68;3.30;;;;;;;;;;5005115;28;20366;-76
2023/05/01 10:19:01;;;;;;;5.25;3.40;;;;;;;;;;5021223;28;20024;-77
2023/05/01 10:21:26;;;;;;;5.90;3.85;;;;;;;;;;5021146;28;20086;-77
2023/05/01 10:23:52;;;;;;;5.03;3.42;;;;;;;;;;5037748;28;20111;-77
2023/05/01 10:26:17;;;;;;;7.07;3.92;;;;;;;;;;5020636;28;20033;-77
2023/05/01 10:28:45;;;;;;;6.18;3.78;;;;;;;;;;5020731;28;20059;-77
2023/05/01 10:31:10;;;;;;;6.32;4.00;;;;;;;;;;5037367;28;20017;-77
2023/05/01 10:33:41;;;;;;;5.93;3.55;;;;;;;;;;5020967;28;20122;-76
2023/05/01 10:36:10;;;;;;;4.60;3.55;;;;;;;;;;4999468;28;20030;-77
2023/05/01 10:38:36;;;;;;;5.73;3.63;;;;;;;;;;4997659;28;20096;-76
2023/05/01 10:41:02;;;;;;;6.60;4.10;;;;;;;;;;4965774;28;20018;-76
2023/05/01 10:43:29;;;;;;;7.45;4.10;;;;;;;;;;4981837;28;20071;-78
2023/05/01 10:46:20;;;;;;;11.15;3.80;;;;;;;;;;4981452;28;20120;-76
2023/05/01 10:48:45;;;;;;;5.45;3.22;;;;;;;;;;5004030;28;20473;-78
2023/05/01 10:51:14;;;;;;;7.03;3.63;;;;;;;;;;5015115;28;20118;-78
2023/05/01 10:53:46;;;;;;;7.07;3.55;;;;;;;;;;4997433;28;20351;-79
2023/05/01 10:56:24;;;;;;;5.65;3.47;;;;;;;;;;4981427;28;20115;-78
2023/05/01 10:59:03;;;;;;;5.82;3.75;;;;;;;;;;4997464;28;20029;-77
2023/05/01 11:01:43;;;;;;;4.78;3.30;;;;;;;;;;4981921;28;20487;-78
2023/05/01 11:04:18;;;;;;;4.63;3.28;;;;;;;;;;4981657;28;20026;-78
2023/05/01 11:07:04;;;;;;;4.25;3.08;;;;;;;;;;5014689;28;20332;-77
2023/05/01 11:09:42;;;;;;;7.07;3.80;;;;;;;;;;4996580;28;20436;-78
2023/05/01 11:12:11;;;;;;;6.03;3.33;;;;;;;;;;5014609;28;20087;-78
2023/05/01 11:15:02;;;;;;;5.97;3.28;;;;;;;;;;4981337;28;20029;-78
2023/05/01 11:17:43;;;;;;;4.95;3.30;;;;;;;;;;5014618;28;20029;-78
2023/05/01 11:20:23;;;;;;;5.10;3.35;;;;;;;;;;4997091;28;20124;-78
2023/05/01 11:22:50;;;;;;;3.97;2.70;;;;;;;;;;5014309;28;20145;-79
2023/05/01 11:25:20;;;;;;;4.28;3.45;;;;;;;;;;4980911;28;20029;-75
2023/05/01 11:27:48;;;;;;;;;;;;;;;;;;4997408;28;20049;-78
2023/05/01 11:30:14;;;;;;;7.57;3.22;;;;;;;;;;4997020;28;19913;-79
2023/05/01 11:32:42;;;;;;;4.78;3.17;;;;;;;;;;4997022;28;20179;-78
2023/05/01 11:35:14;;;;;;;6.20;4.00;;;;;;;;;;4980908;28;20443;-76
2023/05/01 11:37:41;;;;;;;3.83;2.80;;;;;;;;;;4981303;28;20030;-76
2023/05/01 11:40:18;;;;;;;7.85;3.13;;;;;;;;;;5013619;28;20029;-77
2023/05/01 11:42:44;;;;;;;11.82;3.30;;;;;;;;;;5016404;28;20064;-77
2023/05/01 11:45:10;;;;;;;8.60;2.92;;;;;;;;;;5033897;28;20060;-77
2023/05/01 11:47:36;;;;;;;10.25;2.88;;;;;;;;;;5007084;28;20079;-76
2023/05/01 11:50:02;;;;;;;4.60;2.80;;;;;;;;;;5016361;28;20029;-76
2023/05/01 11:52:28;;;;;;;5.93;2.85;;;;;;;;;;5053333;28;20033;-77
2023/05/01 11:54:53;;;;;;;7.30;3.05;;;;;;;;;;5019346;28;20115;-78
2023/05/01 11:57:19;;;;;;;3.92;2.83;;;;;;;;;;5019447;28;20028;-78
2023/05/01 11:59:47;;;;;;;4.30;2.80;;;;;;;;;;5020058;28;20454;-78
2023/05/01 12:02:18;;;;;;;4.50;2.78;;;;;;;;;;5053518;28;20446;-78
2023/05/01 12:04:43;;;;;;;3.67;2.78;;;;;;;;;;5035785;28;20029;-79
2023/05/01 12:07:19;;;;;;;6.53;3.00;;;;;;;;;;5035361;28;20088;-78
2023/05/01 12:09:44;;;;;;;5.97;2.85;;;;;;;;;;5036044;28;20442;-78
2023/05/01 12:12:10;;;;;;;4.03;2.88;;;;;;;;;;5003136;28;20032;-78
2023/05/01 12:14:35;;;;;;;4.57;2.45;;;;;;;;;;5002909;28;20056;-78
2023/05/01 12:17:02;;;;;;;5.53;2.83;;;;;;;;;;5035796;28;20343;-76
2023/05/01 12:19:28;;;;;;;4.10;2.55;;;;;;;;;;5019564;28;20037;-77
2023/05/01 12:22:06;;;;;;;3.45;2.42;;;;;;;;;;5019002;28;20087;-77
2023/05/01 12:24:32;;;;;;;2.72;2.40;;;;;;;;;;5019345;28;20124;-76
2023/05/01 12:27:02;;;;;;;6.75;3.35;;;;;;;;;;5035729;28;20123;-76
2023/05/01 12:29:39;;;;;;;3.65;2.47;;;;;;;;;;5052348;28;20040;-76
2023/05/01 12:32:04;;;;;;;3.88;2.58;;;;;;;;;;5035601;28;20036;-76
2023/05/01 12:34:32;;;;;;;3.50;2.70;;;;;;;;;;5035345;28;20025;-77
2023/05/01 12:36:58;;;;;;;3.55;2.30;;;;;;;;;;5036116;28;20108;-78
2023/05/01 12:39:23;;;;;;;3.20;2.50;;;;;;;;;;5033125;28;20100;-78
2023/05/01 12:41:49;;;;;;;3.80;2.58;;;;;;;;;;5035504;28;20025;-79
2023/05/01 12:44:24;;;;;;;3.90;2.40;;;;;;;;;;5019031;28;20411;-77
2023/05/01 12:46:54;;;;;;;2.63;1.98;;;;;;;;;;5018562;28;20040;-78
2023/05/01 12:49:20;;;;;;;;;;;;;;;;;;5035513;28;20378;-77
2023/05/01 12:51:48;;;;;;;2.33;2.13;;;;;;;;;;5055875;28;19920;-77
2023/05/01 12:54:21;;;;;;;3.95;2.55;;;;;;;;;;5056762;28;20021;-76
2023/05/01 12:56:46;;;;;;;2.72;2.15;;;;;;;;;;5023020;28;20394;-77
2023/05/01 12:59:23;;;;;;;7.30;2.53;;;;;;;;;;5022420;28;20029;-77
2023/05/01 13:02:05;;;;;;;3.00;2.20;;;;;;;;;;5006267;28;20473;-77
2023/05/01 13:04:30;;;;;;;3.50;2.33;;;;;;;;;;5038376;28;20041;-76
2023/05/01 13:06:56;;;;;;;3.28;2.35;;;;;;;;;;5022298;28;20043;-76
2023/05/01 13:09:23;;;;;;;2.65;2.25;;;;;;;;;;5022379;28;20043;-76
2023/05/01 13:11:59;;;;;;;3.72;2.40;;;;;;;;;;5006209;28;20021;-78
2023/05/01 13:14:24;;;;;;;2.97;2.28;;;;;;;;;;5022470;28;20070;-77
2023/05/01 13:16:51;;;;;;;2.92;2.40;;;;;;;;;;5038671;28;20025;-77
2023/05/01 13:19:29;;;;;;;3.55;2.20;;;;;;;;;;5038333;28;20017;-77
2023/05/01 13:21:55;;;;;;;3.63;2.15;;;;;;;;;;5022371;28;20122;-77
2023/05/01 13:24:22;;;;;;;4.00;2.40;;;;;;;;;;5054925;28;20017;-78
2023/05/01 13:26:48;;;;;;;2.58;2.28;;;;;;;;;;5022399;28;20044;-78
2023/05/01 13:29:14;;;;;;;4.53;2.30;;;;;;;;;;5022124;28;20040;-77
2023/05/01 13:31:43;;;;;;;3.65;2.58;;;;;;;;;;5038586;28;20037;-77
2023/05/01 13:34:08;;;;;;;3.10;2.60;;;;;;;;;;5005448;28;20033;-78
2023/05/01 13:36:34;;;;;;;3.10;2.30;;;;;;;;;;5021780;28;20457;-78
2023/05/01 13:38:59;;;;;;;3.33;2.63;;;;;;;;;;5038183;28;20033;-77
2023/05/01 13:41:26;;;;;;;4.38;2.85;;;;;;;;;;5036698;28;20114;-78
2023/05/01 13:43:52;;;;;;;3.42;2.40;;;;;;;;;;5005523;28;20041;-78
2023/05/01 13:46:20;;;;;;;5.07;2.88;;;;;;;;;;5005094;28;20039;-77
2023/05/01 13:48:46;;;;;;;3.72;2.53;;;;;;;;;;5038030;28;20434;-78
2023/05/01 13:51:12;;;;;;;4.07;2.55;;;;;;;;;;5021966;28;20119;-78
2023/05/01 13:53:41;;;;;;;4.10;2.28;;;;;;;;;;5021666;28;20111;-75
2023/05/01 13:56:08;;;;;;;2.65;2.30;;;;;;;;;;5005278;28;20097;-79
2023/05/01 13:58:33;;;;;;;3.35;2.60;;;;;;;;;;5038223;28;20087;-76
2023/05/01 14:00:59;;;;;;;10.63;2.80;;;;;;;;;;5021523;28;20025;-78
2023/05/01 14:03:24;;;;;;;2.72;2.28;;;;;;;;;;5020342;28;20155;-77
2023/05/01 14:05:49;;;;;;;2.90;2.30;;;;;;;;;;5037788;28;20021;-77
2023/05/01 14:08:15;;;;;;;5.25;2.70;;;;;;;;;;5037643;28;20064;-77
2023/05/01 14:10:41;;;;;;;4.55;3.00;;;;;;;;;;5005160;28;20094;-78
2023/05/01 14:13:07;;;;;;;4.25;2.50;;;;;;;;;;5055997;28;20021;-77
2023/05/01 14:15:32;;;;;;;3.95;2.78;;;;;;;;;;5037869;28;20025;-78
2023/05/01 14:18:05;;;;;;;3.45;2.53;;;;;;;;;;5021168;28;20037;-78
2023/05/01 14:20:31;;;;;;;4.00;2.58;;;;;;;;;;5005342;28;20074;-77
2023/05/01 14:22:57;;;;;;;3.47;2.47;;;;;;;;;;5004803;28;20115;-77
2023/05/01 14:25:28;;;;;;;5.10;2.70;;;;;;;;;;5021047;28;20036;-78
2023/05/01 14:27:54;;;;;;;2.92;2.17;;;;;;;;;;5054030;28;20029;-76
2023/05/01 14:30:32;;;;;;;4.47;2.55;;;;;;;;;;5037380;28;20120;-77
2023/05/01 14:32:57;;;;;;;5.68;2.78;;;;;;;;;;5054749;28;20020;-80
2023/05/01 14:35:23;;;;;;;4.65;2.72;;;;;;;;;;5054985;28;20173;-79
2023/05/01 14:37:49;;;;;;;4.40;2.55;;;;;;;;;;5000803;28;20148;-79
2023/05/01 14:40:16;;;;;;;2.80;2.22;;;;;;;;;;5017402;28;20026;-77
2023/05/01 14:42:45;;;;;;;3.60;2.40;;;;;;;;;;5021126;28;20032;-78
2023/05/01 14:45:15;;;;;;;3.42;2.40;;;;;;;;;;5020931;28;20052;-78